sensor_id;sensor_type;location;lat;lon;timestamp;P1;durP1;ratioP1;P2;durP2;ratioP2
39776;SDS011;25453;48.162;14.510;2024-01-27T00:02:14;1.23;;;0.60;;
39776;SDS011;25453;48.162;14.510;2024-01-27T00:04:41;3.58;;;0.50;;
39776;SDS011;25453;48.162;14.510;2024-01-27T00:07:08;0.68;;;0.40;;
39776;SDS011;25453;48.162;14.510;2024-01-27T00:09:36;4.18;;;0.70;;
39776;SDS011;25453;48.162;14.510;2024-01-27T00:12:03;1.17;;;0.60;;
39776;SDS011;25453;48.162;14.510;2024-01-27T00:14:31;2.70;;;0.52;;
39776;SDS011;25453;48.162;14.510;2024-01-27T00:16:58;1.02;;;0.50;;
39776;SDS011;25453;48.162;14.510;2024-01-27T00:19:25;2.55;;;1.00;;
39776;SDS011;25453;48.162;14.510;2024-01-27T00:21:52;3.85;;;0.70;;
39776;SDS011;25453;48.162;14.510;2024-01-27T00:24:20;0.95;;;0.40;;
39776;SDS011;25453;48.162;14.510;2024-01-27T00:26:47;1.70;;;0.63;;
39776;SDS011;25453;48.162;14.510;2024-01-27T00:29:14;2.30;;;0.60;;
39776;SDS011;25453;48.162;14.510;2024-01-27T00:31:42;4.00;;;0.70;;
39776;SDS011;25453;48.162;14.510;2024-01-27T00:34:09;3.78;;;0.70;;
39776;SDS011;25453;48.162;14.510;2024-01-27T00:36:36;2.10;;;1.10;;
39776;SDS011;25453;48.162;14.510;2024-01-27T00:39:04;2.45;;;0.70;;
39776;SDS011;25453;48.162;14.510;2024-01-27T00:41:31;1.85;;;0.70;;
39776;SDS011;25453;48.162;14.510;2024-01-27T00:43:58;2.20;;;0.75;;
39776;SDS011;25453;48.162;14.510;2024-01-27T00:46:26;1.05;;;0.63;;
39776;SDS011;25453;48.162;14.510;2024-01-27T00:48:53;0.93;;;0.50;;
39776;SDS011;25453;48.162;14.510;2024-01-27T00:51:20;2.95;;;0.80;;
39776;SDS011;25453;48.162;14.510;2024-01-27T00:53:48;3.53;;;0.40;;
39776;SDS011;25453;48.162;14.510;2024-01-27T00:56:15;1.95;;;1.00;;
39776;SDS011;25453;48.162;14.510;2024-01-27T00:58:42;5.63;;;0.75;;
39776;SDS011;25453;48.162;14.510;2024-01-27T01:01:09;3.60;;;1.27;;
39776;SDS011;25453;48.162;14.510;2024-01-27T01:03:37;3.60;;;0.77;;
39776;SDS011;25453;48.162;14.510;2024-01-27T01:06:05;2.75;;;0.70;;
39776;SDS011;25453;48.162;14.510;2024-01-27T01:08:32;2.97;;;0.65;;
39776;SDS011;25453;48.162;14.510;2024-01-27T01:10:59;2.53;;;0.80;;
39776;SDS011;25453;48.162;14.510;2024-01-27T01:13:26;5.32;;;0.80;;
39776;SDS011;25453;48.162;14.510;2024-01-27T01:15:54;3.55;;;0.90;;
39776;SDS011;25453;48.162;14.510;2024-01-27T01:18:21;1.33;;;0.73;;
39776;SDS011;25453;48.162;14.510;2024-01-27T01:20:49;3.53;;;0.93;;
39776;SDS011;25453;48.162;14.510;2024-01-27T01:23:16;4.13;;;1.20;;
39776;SDS011;25453;48.162;14.510;2024-01-27T01:25:43;1.92;;;0.90;;
39776;SDS011;25453;48.162;14.510;2024-01-27T01:28:10;3.90;;;1.08;;
39776;SDS011;25453;48.162;14.510;2024-01-27T01:30:38;2.60;;;1.05;;
39776;SDS011;25453;48.162;14.510;2024-01-27T01:33:05;2.35;;;1.00;;
39776;SDS011;25453;48.162;14.510;2024-01-27T01:35:34;2.60;;;0.65;;
39776;SDS011;25453;48.162;14.510;2024-01-27T01:38:01;2.58;;;0.80;;
39776;SDS011;25453;48.162;14.510;2024-01-27T01:40:29;7.53;;;0.90;;
39776;SDS011;25453;48.162;14.510;2024-01-27T01:42:58;3.47;;;0.68;;
39776;SDS011;25453;48.162;14.510;2024-01-27T01:45:25;6.57;;;1.00;;
39776;SDS011;25453;48.162;14.510;2024-01-27T01:47:53;6.90;;;1.30;;
39776;SDS011;25453;48.162;14.510;2024-01-27T01:50:20;4.28;;;0.60;;
39776;SDS011;25453;48.162;14.510;2024-01-27T01:52:48;1.92;;;0.95;;
39776;SDS011;25453;48.162;14.510;2024-01-27T01:55:16;1.75;;;0.85;;
39776;SDS011;25453;48.162;14.510;2024-01-27T01:57:43;2.20;;;1.00;;
39776;SDS011;25453;48.162;14.510;2024-01-27T02:00:11;5.53;;;1.23;;
39776;SDS011;25453;48.162;14.510;2024-01-27T02:02:42;2.03;;;1.05;;
39776;SDS011;25453;48.162;14.510;2024-01-27T02:05:12;1.70;;;0.60;;
39776;SDS011;25453;48.162;14.510;2024-01-27T02:07:41;1.95;;;0.70;;
39776;SDS011;25453;48.162;14.510;2024-01-27T02:10:12;1.38;;;0.70;;
39776;SDS011;25453;48.162;14.510;2024-01-27T02:12:43;2.72;;;0.90;;
39776;SDS011;25453;48.162;14.510;2024-01-27T02:15:11;2.65;;;0.73;;
39776;SDS011;25453;48.162;14.510;2024-01-27T02:17:39;1.50;;;0.60;;
39776;SDS011;25453;48.162;14.510;2024-01-27T02:20:07;2.25;;;1.02;;
39776;SDS011;25453;48.162;14.510;2024-01-27T02:22:35;4.82;;;0.93;;
39776;SDS011;25453;48.162;14.510;2024-01-27T02:25:03;3.63;;;0.70;;
39776;SDS011;25453;48.162;14.510;2024-01-27T02:27:31;7.07;;;0.82;;
39776;SDS011;25453;48.162;14.510;2024-01-27T02:29:58;4.50;;;1.85;;
39776;SDS011;25453;48.162;14.510;2024-01-27T02:32:25;4.35;;;1.27;;
39776;SDS011;25453;48.162;14.510;2024-01-27T02:34:53;1.55;;;0.73;;
39776;SDS011;25453;48.162;14.510;2024-01-27T02:37:20;1.88;;;0.60;;
39776;SDS011;25453;48.162;14.510;2024-01-27T02:39:47;2.03;;;0.85;;
39776;SDS011;25453;48.162;14.510;2024-01-27T02:42:14;4.40;;;1.02;;
39776;SDS011;25453;48.162;14.510;2024-01-27T02:44:42;1.85;;;0.80;;
39776;SDS011;25453;48.162;14.510;2024-01-27T02:47:09;1.67;;;0.73;;
39776;SDS011;25453;48.162;14.510;2024-01-27T02:49:36;4.72;;;0.75;;
39776;SDS011;25453;48.162;14.510;2024-01-27T02:52:03;3.25;;;1.00;;
39776;SDS011;25453;48.162;14.510;2024-01-27T02:54:31;7.68;;;1.00;;
39776;SDS011;25453;48.162;14.510;2024-01-27T02:56:58;2.08;;;0.65;;
39776;SDS011;25453;48.162;14.510;2024-01-27T02:59:25;2.22;;;1.00;;
39776;SDS011;25453;48.162;14.510;2024-01-27T03:01:53;4.55;;;0.80;;
39776;SDS011;25453;48.162;14.510;2024-01-27T03:04:20;1.80;;;0.95;;
39776;SDS011;25453;48.162;14.510;2024-01-27T03:06:48;2.00;;;0.60;;
39776;SDS011;25453;48.162;14.510;2024-01-27T03:09:16;5.15;;;0.93;;
39776;SDS011;25453;48.162;14.510;2024-01-27T03:11:43;2.17;;;0.70;;
39776;SDS011;25453;48.162;14.510;2024-01-27T03:14:10;3.05;;;0.90;;
39776;SDS011;25453;48.162;14.510;2024-01-27T03:16:38;5.03;;;1.10;;
39776;SDS011;25453;48.162;14.510;2024-01-27T03:19:05;2.60;;;1.00;;
39776;SDS011;25453;48.162;14.510;2024-01-27T03:21:33;1.52;;;1.10;;
39776;SDS011;25453;48.162;14.510;2024-01-27T03:24:00;5.47;;;1.10;;
39776;SDS011;25453;48.162;14.510;2024-01-27T03:26:28;3.00;;;1.20;;
39776;SDS011;25453;48.162;14.510;2024-01-27T03:28:55;4.43;;;1.23;;
39776;SDS011;25453;48.162;14.510;2024-01-27T03:31:22;4.32;;;0.88;;
39776;SDS011;25453;48.162;14.510;2024-01-27T03:33:49;2.13;;;0.88;;
39776;SDS011;25453;48.162;14.510;2024-01-27T03:36:17;2.10;;;0.77;;
39776;SDS011;25453;48.162;14.510;2024-01-27T03:38:44;0.80;;;0.60;;
39776;SDS011;25453;48.162;14.510;2024-01-27T03:41:12;4.53;;;1.17;;
39776;SDS011;25453;48.162;14.510;2024-01-27T03:43:39;1.75;;;0.93;;
39776;SDS011;25453;48.162;14.510;2024-01-27T03:46:06;1.95;;;0.65;;
39776;SDS011;25453;48.162;14.510;2024-01-27T03:48:33;3.22;;;0.80;;
39776;SDS011;25453;48.162;14.510;2024-01-27T03:51:04;1.77;;;0.77;;
39776;SDS011;25453;48.162;14.510;2024-01-27T03:53:32;2.85;;;0.80;;
39776;SDS011;25453;48.162;14.510;2024-01-27T03:55:59;4.10;;;0.90;;
39776;SDS011;25453;48.162;14.510;2024-01-27T03:58:30;2.05;;;0.70;;
39776;SDS011;25453;48.162;14.510;2024-01-27T04:00:58;1.52;;;0.80;;
39776;SDS011;25453;48.162;14.510;2024-01-27T04:03:26;3.20;;;0.90;;
39776;SDS011;25453;48.162;14.510;2024-01-27T04:05:53;1.92;;;0.73;;
39776;SDS011;25453;48.162;14.510;2024-01-27T04:08:20;5.35;;;0.98;;
39776;SDS011;25453;48.162;14.510;2024-01-27T04:10:48;2.50;;;0.60;;
39776;SDS011;25453;48.162;14.510;2024-01-27T04:13:15;4.32;;;0.93;;
39776;SDS011;25453;48.162;14.510;2024-01-27T04:15:42;1.77;;;0.90;;
39776;SDS011;25453;48.162;14.510;2024-01-27T04:18:09;1.67;;;0.85;;
39776;SDS011;25453;48.162;14.510;2024-01-27T04:20:38;3.05;;;1.10;;
39776;SDS011;25453;48.162;14.510;2024-01-27T04:23:05;2.67;;;0.70;;
39776;SDS011;25453;48.162;14.510;2024-01-27T04:25:33;2.80;;;0.75;;
39776;SDS011;25453;48.162;14.510;2024-01-27T04:28:00;2.30;;;1.15;;
39776;SDS011;25453;48.162;14.510;2024-01-27T04:30:28;1.00;;;0.80;;
39776;SDS011;25453;48.162;14.510;2024-01-27T04:32:56;3.05;;;0.70;;
39776;SDS011;25453;48.162;14.510;2024-01-27T04:35:23;4.28;;;0.88;;
39776;SDS011;25453;48.162;14.510;2024-01-27T04:37:50;1.67;;;0.70;;
39776;SDS011;25453;48.162;14.510;2024-01-27T04:40:18;3.50;;;1.05;;
39776;SDS011;25453;48.162;14.510;2024-01-27T04:42:46;2.30;;;0.60;;
39776;SDS011;25453;48.162;14.510;2024-01-27T04:45:14;1.92;;;0.68;;
39776;SDS011;25453;48.162;14.510;2024-01-27T04:47:41;4.03;;;0.75;;
39776;SDS011;25453;48.162;14.510;2024-01-27T04:50:09;5.53;;;0.88;;
39776;SDS011;25453;48.162;14.510;2024-01-27T04:52:36;3.72;;;0.68;;
39776;SDS011;25453;48.162;14.510;2024-01-27T04:55:03;3.00;;;0.70;;
39776;SDS011;25453;48.162;14.510;2024-01-27T04:57:31;3.58;;;0.88;;
39776;SDS011;25453;48.162;14.510;2024-01-27T04:59:58;1.80;;;0.60;;
39776;SDS011;25453;48.162;14.510;2024-01-27T05:02:25;2.17;;;1.08;;
39776;SDS011;25453;48.162;14.510;2024-01-27T05:04:53;2.10;;;0.80;;
39776;SDS011;25453;48.162;14.510;2024-01-27T05:07:20;3.20;;;0.93;;
39776;SDS011;25453;48.162;14.510;2024-01-27T05:09:48;3.00;;;0.68;;
39776;SDS011;25453;48.162;14.510;2024-01-27T05:12:15;1.98;;;0.85;;
39776;SDS011;25453;48.162;14.510;2024-01-27T05:14:45;2.50;;;0.70;;
39776;SDS011;25453;48.162;14.510;2024-01-27T05:17:13;2.53;;;1.23;;
39776;SDS011;25453;48.162;14.510;2024-01-27T05:19:40;3.58;;;0.98;;
39776;SDS011;25453;48.162;14.510;2024-01-27T05:22:07;6.35;;;1.05;;
39776;SDS011;25453;48.162;14.510;2024-01-27T05:24:34;4.38;;;0.88;;
39776;SDS011;25453;48.162;14.510;2024-01-27T05:27:02;2.05;;;0.90;;
39776;SDS011;25453;48.162;14.510;2024-01-27T05:29:29;5.63;;;1.10;;
39776;SDS011;25453;48.162;14.510;2024-01-27T05:31:57;3.67;;;1.48;;
39776;SDS011;25453;48.162;14.510;2024-01-27T05:34:24;2.45;;;0.80;;
39776;SDS011;25453;48.162;14.510;2024-01-27T05:36:51;3.25;;;0.95;;
39776;SDS011;25453;48.162;14.510;2024-01-27T05:39:18;2.15;;;1.00;;
39776;SDS011;25453;48.162;14.510;2024-01-27T05:41:45;4.43;;;0.90;;
39776;SDS011;25453;48.162;14.510;2024-01-27T05:44:13;4.85;;;1.08;;
39776;SDS011;25453;48.162;14.510;2024-01-27T05:46:40;3.67;;;0.90;;
39776;SDS011;25453;48.162;14.510;2024-01-27T05:49:07;2.33;;;0.88;;
39776;SDS011;25453;48.162;14.510;2024-01-27T05:51:35;1.17;;;0.68;;
39776;SDS011;25453;48.162;14.510;2024-01-27T05:54:02;5.25;;;1.90;;
39776;SDS011;25453;48.162;14.510;2024-01-27T05:56:31;5.25;;;1.20;;
39776;SDS011;25453;48.162;14.510;2024-01-27T05:58:58;4.45;;;1.42;;
39776;SDS011;25453;48.162;14.510;2024-01-27T06:01:26;7.13;;;1.13;;
39776;SDS011;25453;48.162;14.510;2024-01-27T06:03:54;8.00;;;1.80;;
39776;SDS011;25453;48.162;14.510;2024-01-27T06:06:21;4.25;;;1.40;;
39776;SDS011;25453;48.162;14.510;2024-01-27T06:08:49;7.20;;;1.85;;
39776;SDS011;25453;48.162;14.510;2024-01-27T06:11:23;3.92;;;1.38;;
39776;SDS011;25453;48.162;14.510;2024-01-27T06:13:51;3.85;;;1.50;;
39776;SDS011;25453;48.162;14.510;2024-01-27T06:16:18;3.05;;;1.17;;
39776;SDS011;25453;48.162;14.510;2024-01-27T06:18:45;4.55;;;1.52;;
39776;SDS011;25453;48.162;14.510;2024-01-27T06:21:13;5.55;;;1.55;;
39776;SDS011;25453;48.162;14.510;2024-01-27T06:23:40;3.00;;;1.50;;
39776;SDS011;25453;48.162;14.510;2024-01-27T06:26:07;2.92;;;1.40;;
39776;SDS011;25453;48.162;14.510;2024-01-27T06:28:35;3.90;;;1.35;;
39776;SDS011;25453;48.162;14.510;2024-01-27T06:31:03;4.03;;;1.42;;
39776;SDS011;25453;48.162;14.510;2024-01-27T06:33:31;13.13;;;2.42;;
39776;SDS011;25453;48.162;14.510;2024-01-27T06:35:58;4.35;;;1.73;;
39776;SDS011;25453;48.162;14.510;2024-01-27T06:38:26;6.47;;;1.90;;
39776;SDS011;25453;48.162;14.510;2024-01-27T06:40:54;7.63;;;1.60;;
39776;SDS011;25453;48.162;14.510;2024-01-27T06:43:22;5.53;;;1.35;;
39776;SDS011;25453;48.162;14.510;2024-01-27T06:45:49;5.18;;;1.73;;
39776;SDS011;25453;48.162;14.510;2024-01-27T06:48:17;5.60;;;1.75;;
39776;SDS011;25453;48.162;14.510;2024-01-27T06:50:44;8.45;;;2.00;;
39776;SDS011;25453;48.162;14.510;2024-01-27T06:53:11;5.28;;;1.92;;
39776;SDS011;25453;48.162;14.510;2024-01-27T06:55:38;7.15;;;1.90;;
39776;SDS011;25453;48.162;14.510;2024-01-27T06:58:09;5.60;;;1.63;;
39776;SDS011;25453;48.162;14.510;2024-01-27T07:00:37;3.88;;;1.30;;
39776;SDS011;25453;48.162;14.510;2024-01-27T07:03:04;3.58;;;1.42;;
39776;SDS011;25453;48.162;14.510;2024-01-27T07:05:34;3.95;;;1.25;;
39776;SDS011;25453;48.162;14.510;2024-01-27T07:08:08;3.40;;;1.30;;
39776;SDS011;25453;48.162;14.510;2024-01-27T07:10:35;2.60;;;1.10;;
39776;SDS011;25453;48.162;14.510;2024-01-27T07:13:02;6.28;;;1.83;;
39776;SDS011;25453;48.162;14.510;2024-01-27T07:15:32;2.40;;;0.88;;
39776;SDS011;25453;48.162;14.510;2024-01-27T07:18:00;3.88;;;1.40;;
39776;SDS011;25453;48.162;14.510;2024-01-27T07:20:27;6.93;;;1.52;;
39776;SDS011;25453;48.162;14.510;2024-01-27T07:22:55;5.30;;;1.30;;
39776;SDS011;25453;48.162;14.510;2024-01-27T07:25:22;8.13;;;2.35;;
39776;SDS011;25453;48.162;14.510;2024-01-27T07:27:50;10.77;;;2.38;;
39776;SDS011;25453;48.162;14.510;2024-01-27T07:30:17;5.53;;;2.00;;
39776;SDS011;25453;48.162;14.510;2024-01-27T07:32:44;7.15;;;1.58;;
39776;SDS011;25453;48.162;14.510;2024-01-27T07:35:12;4.95;;;2.03;;
39776;SDS011;25453;48.162;14.510;2024-01-27T07:37:39;7.50;;;1.75;;
39776;SDS011;25453;48.162;14.510;2024-01-27T07:40:07;7.40;;;1.83;;
39776;SDS011;25453;48.162;14.510;2024-01-27T07:42:36;8.85;;;1.88;;
39776;SDS011;25453;48.162;14.510;2024-01-27T07:45:04;5.78;;;1.67;;
39776;SDS011;25453;48.162;14.510;2024-01-27T07:47:31;3.97;;;1.90;;
39776;SDS011;25453;48.162;14.510;2024-01-27T07:49:59;5.45;;;1.88;;
39776;SDS011;25453;48.162;14.510;2024-01-27T07:52:26;3.67;;;1.60;;
39776;SDS011;25453;48.162;14.510;2024-01-27T07:54:53;7.47;;;1.75;;
39776;SDS011;25453;48.162;14.510;2024-01-27T07:57:21;4.95;;;1.60;;
39776;SDS011;25453;48.162;14.510;2024-01-27T07:59:48;5.80;;;2.17;;
39776;SDS011;25453;48.162;14.510;2024-01-27T08:02:15;9.10;;;2.70;;
39776;SDS011;25453;48.162;14.510;2024-01-27T08:04:43;5.28;;;1.88;;
39776;SDS011;25453;48.162;14.510;2024-01-27T08:07:10;5.53;;;1.85;;
39776;SDS011;25453;48.162;14.510;2024-01-27T08:09:37;9.13;;;1.80;;
39776;SDS011;25453;48.162;14.510;2024-01-27T08:12:05;5.03;;;1.85;;
39776;SDS011;25453;48.162;14.510;2024-01-27T08:14:33;4.22;;;1.90;;
39776;SDS011;25453;48.162;14.510;2024-01-27T08:17:02;6.32;;;1.30;;
39776;SDS011;25453;48.162;14.510;2024-01-27T08:19:30;2.85;;;1.42;;
39776;SDS011;25453;48.162;14.510;2024-01-27T08:21:58;4.70;;;1.30;;
39776;SDS011;25453;48.162;14.510;2024-01-27T08:24:25;5.00;;;1.88;;
39776;SDS011;25453;48.162;14.510;2024-01-27T08:26:53;6.97;;;1.42;;
39776;SDS011;25453;48.162;14.510;2024-01-27T08:29:20;6.25;;;1.20;;
39776;SDS011;25453;48.162;14.510;2024-01-27T08:31:48;5.78;;;1.80;;
39776;SDS011;25453;48.162;14.510;2024-01-27T08:34:15;6.13;;;1.70;;
39776;SDS011;25453;48.162;14.510;2024-01-27T08:36:43;4.38;;;1.58;;
39776;SDS011;25453;48.162;14.510;2024-01-27T08:39:10;3.78;;;1.40;;
39776;SDS011;25453;48.162;14.510;2024-01-27T08:41:39;5.82;;;1.90;;
39776;SDS011;25453;48.162;14.510;2024-01-27T08:44:06;3.95;;;1.70;;
39776;SDS011;25453;48.162;14.510;2024-01-27T08:46:33;6.20;;;1.80;;
39776;SDS011;25453;48.162;14.510;2024-01-27T08:49:01;3.50;;;1.27;;
39776;SDS011;25453;48.162;14.510;2024-01-27T08:51:28;6.93;;;1.40;;
39776;SDS011;25453;48.162;14.510;2024-01-27T08:53:56;4.53;;;1.48;;
39776;SDS011;25453;48.162;14.510;2024-01-27T08:56:23;6.65;;;1.83;;
39776;SDS011;25453;48.162;14.510;2024-01-27T08:58:50;5.68;;;1.70;;
39776;SDS011;25453;48.162;14.510;2024-01-27T09:01:19;3.50;;;1.63;;
39776;SDS011;25453;48.162;14.510;2024-01-27T09:03:47;4.90;;;1.50;;
39776;SDS011;25453;48.162;14.510;2024-01-27T09:06:14;3.28;;;1.50;;
39776;SDS011;25453;48.162;14.510;2024-01-27T09:08:42;4.57;;;1.58;;
39776;SDS011;25453;48.162;14.510;2024-01-27T09:11:09;5.22;;;1.45;;
39776;SDS011;25453;48.162;14.510;2024-01-27T09:13:37;6.07;;;1.42;;
39776;SDS011;25453;48.162;14.510;2024-01-27T09:16:04;9.90;;;2.22;;
39776;SDS011;25453;48.162;14.510;2024-01-27T09:18:31;8.35;;;2.17;;
39776;SDS011;25453;48.162;14.510;2024-01-27T09:20:59;6.05;;;1.77;;
39776;SDS011;25453;48.162;14.510;2024-01-27T09:23:26;8.25;;;2.10;;
39776;SDS011;25453;48.162;14.510;2024-01-27T09:25:54;6.50;;;1.67;;
39776;SDS011;25453;48.162;14.510;2024-01-27T09:28:21;6.97;;;1.95;;
39776;SDS011;25453;48.162;14.510;2024-01-27T09:30:50;4.32;;;1.30;;
39776;SDS011;25453;48.162;14.510;2024-01-27T09:33:18;4.20;;;1.45;;
39776;SDS011;25453;48.162;14.510;2024-01-27T09:35:46;6.90;;;1.75;;
39776;SDS011;25453;48.162;14.510;2024-01-27T09:38:13;3.78;;;1.95;;
39776;SDS011;25453;48.162;14.510;2024-01-27T09:40:41;4.07;;;1.35;;
39776;SDS011;25453;48.162;14.510;2024-01-27T09:43:08;7.80;;;1.88;;
39776;SDS011;25453;48.162;14.510;2024-01-27T09:45:40;6.97;;;1.67;;
39776;SDS011;25453;48.162;14.510;2024-01-27T09:48:08;6.07;;;1.83;;
39776;SDS011;25453;48.162;14.510;2024-01-27T09:50:40;5.47;;;2.03;;
39776;SDS011;25453;48.162;14.510;2024-01-27T09:53:08;8.05;;;1.50;;
39776;SDS011;25453;48.162;14.510;2024-01-27T09:55:36;4.97;;;1.27;;
39776;SDS011;25453;48.162;14.510;2024-01-27T09:58:03;4.97;;;1.60;;
39776;SDS011;25453;48.162;14.510;2024-01-27T10:00:33;7.90;;;1.63;;
39776;SDS011;25453;48.162;14.510;2024-01-27T10:03:02;5.55;;;1.70;;
39776;SDS011;25453;48.162;14.510;2024-01-27T10:05:32;3.83;;;1.50;;
39776;SDS011;25453;48.162;14.510;2024-01-27T10:07:59;4.13;;;1.45;;
39776;SDS011;25453;48.162;14.510;2024-01-27T10:10:26;4.20;;;1.45;;
39776;SDS011;25453;48.162;14.510;2024-01-27T10:12:53;3.85;;;1.52;;
39776;SDS011;25453;48.162;14.510;2024-01-27T10:15:25;5.07;;;1.40;;
39776;SDS011;25453;48.162;14.510;2024-01-27T10:18:04;6.40;;;1.38;;
39776;SDS011;25453;48.162;14.510;2024-01-27T10:20:33;3.83;;;1.25;;
39776;SDS011;25453;48.162;14.510;2024-01-27T10:23:11;5.38;;;1.45;;
39776;SDS011;25453;48.162;14.510;2024-01-27T10:25:39;4.47;;;1.48;;
39776;SDS011;25453;48.162;14.510;2024-01-27T10:28:07;4.00;;;1.40;;
39776;SDS011;25453;48.162;14.510;2024-01-27T10:30:35;6.53;;;1.42;;
39776;SDS011;25453;48.162;14.510;2024-01-27T10:33:04;5.50;;;1.30;;
39776;SDS011;25453;48.162;14.510;2024-01-27T10:35:34;4.93;;;1.30;;
39776;SDS011;25453;48.162;14.510;2024-01-27T10:38:01;4.07;;;1.67;;
39776;SDS011;25453;48.162;14.510;2024-01-27T10:40:29;3.90;;;1.50;;
39776;SDS011;25453;48.162;14.510;2024-01-27T10:43:03;3.67;;;1.60;;
39776;SDS011;25453;48.162;14.510;2024-01-27T10:45:39;6.38;;;1.25;;
39776;SDS011;25453;48.162;14.510;2024-01-27T10:48:09;4.43;;;1.80;;
39776;SDS011;25453;48.162;14.510;2024-01-27T10:50:40;5.03;;;1.60;;
39776;SDS011;25453;48.162;14.510;2024-01-27T10:53:23;5.13;;;1.95;;
39776;SDS011;25453;48.162;14.510;2024-01-27T10:55:53;8.02;;;1.83;;
39776;SDS011;25453;48.162;14.510;2024-01-27T10:58:23;3.45;;;1.40;;
39776;SDS011;25453;48.162;14.510;2024-01-27T11:00:52;6.85;;;1.45;;
39776;SDS011;25453;48.162;14.510;2024-01-27T11:03:20;3.63;;;1.65;;
39776;SDS011;25453;48.162;14.510;2024-01-27T11:05:49;11.80;;;1.83;;
39776;SDS011;25453;48.162;14.510;2024-01-27T11:08:19;6.57;;;1.60;;
39776;SDS011;25453;48.162;14.510;2024-01-27T11:10:50;3.80;;;1.60;;
39776;SDS011;25453;48.162;14.510;2024-01-27T11:13:18;2.90;;;1.30;;
39776;SDS011;25453;48.162;14.510;2024-01-27T11:15:52;5.20;;;1.58;;
39776;SDS011;25453;48.162;14.510;2024-01-27T11:18:20;5.70;;;1.83;;
39776;SDS011;25453;48.162;14.510;2024-01-27T11:20:47;6.70;;;1.50;;
39776;SDS011;25453;48.162;14.510;2024-01-27T11:23:15;10.75;;;3.35;;
39776;SDS011;25453;48.162;14.510;2024-01-27T11:25:42;7.05;;;1.17;;
39776;SDS011;25453;48.162;14.510;2024-01-27T11:28:13;6.55;;;1.70;;
39776;SDS011;25453;48.162;14.510;2024-01-27T11:30:48;6.95;;;1.67;;
39776;SDS011;25453;48.162;14.510;2024-01-27T11:33:16;4.97;;;1.75;;
39776;SDS011;25453;48.162;14.510;2024-01-27T11:35:44;4.03;;;1.63;;
39776;SDS011;25453;48.162;14.510;2024-01-27T11:38:12;4.95;;;1.80;;
39776;SDS011;25453;48.162;14.510;2024-01-27T11:40:46;3.10;;;1.30;;
39776;SDS011;25453;48.162;14.510;2024-01-27T11:43:16;4.40;;;2.40;;
39776;SDS011;25453;48.162;14.510;2024-01-27T11:45:43;7.28;;;1.35;;
39776;SDS011;25453;48.162;14.510;2024-01-27T11:48:21;3.63;;;1.38;;
39776;SDS011;25453;48.162;14.510;2024-01-27T11:51:00;6.18;;;1.40;;
39776;SDS011;25453;48.162;14.510;2024-01-27T11:53:37;4.70;;;1.95;;
39776;SDS011;25453;48.162;14.510;2024-01-27T11:56:05;5.82;;;1.90;;
39776;SDS011;25453;48.162;14.510;2024-01-27T11:58:33;4.88;;;1.50;;
39776;SDS011;25453;48.162;14.510;2024-01-27T12:01:01;6.68;;;2.15;;
39776;SDS011;25453;48.162;14.510;2024-01-27T12:03:28;5.45;;;1.52;;
39776;SDS011;25453;48.162;14.510;2024-01-27T12:05:57;7.28;;;1.40;;
39776;SDS011;25453;48.162;14.510;2024-01-27T12:08:25;9.68;;;2.75;;
39776;SDS011;25453;48.162;14.510;2024-01-27T12:10:54;6.70;;;1.80;;
39776;SDS011;25453;48.162;14.510;2024-01-27T12:13:21;7.53;;;1.80;;
39776;SDS011;25453;48.162;14.510;2024-01-27T12:15:49;3.58;;;1.73;;
39776;SDS011;25453;48.162;14.510;2024-01-27T12:18:16;3.67;;;1.75;;
39776;SDS011;25453;48.162;14.510;2024-01-27T12:20:53;6.95;;;1.67;;
39776;SDS011;25453;48.162;14.510;2024-01-27T12:23:23;7.43;;;2.38;;
39776;SDS011;25453;48.162;14.510;2024-01-27T12:25:53;4.35;;;1.77;;
39776;SDS011;25453;48.162;14.510;2024-01-27T12:28:24;7.00;;;2.35;;
39776;SDS011;25453;48.162;14.510;2024-01-27T12:30:52;6.78;;;1.83;;
39776;SDS011;25453;48.162;14.510;2024-01-27T12:33:20;5.75;;;1.75;;
39776;SDS011;25453;48.162;14.510;2024-01-27T12:35:51;5.82;;;1.75;;
39776;SDS011;25453;48.162;14.510;2024-01-27T12:38:21;4.13;;;1.67;;
39776;SDS011;25453;48.162;14.510;2024-01-27T12:40:49;8.35;;;2.30;;
39776;SDS011;25453;48.162;14.510;2024-01-27T12:43:16;4.95;;;1.73;;
39776;SDS011;25453;48.162;14.510;2024-01-27T12:45:44;7.13;;;1.42;;
39776;SDS011;25453;48.162;14.510;2024-01-27T12:48:11;6.50;;;1.48;;
39776;SDS011;25453;48.162;14.510;2024-01-27T12:50:39;2.35;;;1.38;;
39776;SDS011;25453;48.162;14.510;2024-01-27T12:53:06;3.88;;;1.45;;
39776;SDS011;25453;48.162;14.510;2024-01-27T12:55:33;4.07;;;1.88;;
39776;SDS011;25453;48.162;14.510;2024-01-27T12:58:00;2.50;;;1.27;;
39776;SDS011;25453;48.162;14.510;2024-01-27T13:00:28;6.25;;;1.50;;
39776;SDS011;25453;48.162;14.510;2024-01-27T13:02:55;3.90;;;1.33;;
39776;SDS011;25453;48.162;14.510;2024-01-27T13:05:22;8.68;;;1.42;;
39776;SDS011;25453;48.162;14.510;2024-01-27T13:07:49;3.33;;;1.17;;
39776;SDS011;25453;48.162;14.510;2024-01-27T13:10:17;7.40;;;1.55;;
39776;SDS011;25453;48.162;14.510;2024-01-27T13:12:45;6.68;;;1.45;;
39776;SDS011;25453;48.162;14.510;2024-01-27T13:15:12;3.17;;;1.10;;
39776;SDS011;25453;48.162;14.510;2024-01-27T13:17:39;4.00;;;1.30;;
39776;SDS011;25453;48.162;14.510;2024-01-27T13:20:08;4.80;;;1.27;;
39776;SDS011;25453;48.162;14.510;2024-01-27T13:22:36;2.53;;;1.13;;
39776;SDS011;25453;48.162;14.510;2024-01-27T13:25:03;4.75;;;1.10;;
39776;SDS011;25453;48.162;14.510;2024-01-27T13:27:34;3.15;;;1.20;;
39776;SDS011;25453;48.162;14.510;2024-01-27T13:30:02;3.53;;;1.20;;
39776;SDS011;25453;48.162;14.510;2024-01-27T13:32:30;3.88;;;1.20;;
39776;SDS011;25453;48.162;14.510;2024-01-27T13:34:57;5.32;;;1.55;;
39776;SDS011;25453;48.162;14.510;2024-01-27T13:37:25;9.80;;;1.35;;
39776;SDS011;25453;48.162;14.510;2024-01-27T13:39:52;6.00;;;1.20;;
39776;SDS011;25453;48.162;14.510;2024-01-27T13:42:20;2.80;;;1.00;;
39776;SDS011;25453;48.162;14.510;2024-01-27T13:44:47;5.10;;;1.10;;
39776;SDS011;25453;48.162;14.510;2024-01-27T13:47:14;3.70;;;0.80;;
39776;SDS011;25453;48.162;14.510;2024-01-27T13:49:42;2.85;;;0.95;;
39776;SDS011;25453;48.162;14.510;2024-01-27T13:52:09;1.52;;;0.73;;
39776;SDS011;25453;48.162;14.510;2024-01-27T13:54:37;3.42;;;1.00;;
39776;SDS011;25453;48.162;14.510;2024-01-27T13:57:05;2.97;;;0.88;;
39776;SDS011;25453;48.162;14.510;2024-01-27T13:59:32;3.10;;;1.05;;
39776;SDS011;25453;48.162;14.510;2024-01-27T14:02:00;3.72;;;1.08;;
39776;SDS011;25453;48.162;14.510;2024-01-27T14:04:28;3.20;;;1.00;;
39776;SDS011;25453;48.162;14.510;2024-01-27T14:06:55;3.45;;;1.10;;
39776;SDS011;25453;48.162;14.510;2024-01-27T14:09:23;7.55;;;1.45;;
39776;SDS011;25453;48.162;14.510;2024-01-27T14:11:51;6.20;;;1.30;;
39776;SDS011;25453;48.162;14.510;2024-01-27T14:14:18;3.05;;;1.20;;
39776;SDS011;25453;48.162;14.510;2024-01-27T14:16:46;3.50;;;1.10;;
39776;SDS011;25453;48.162;14.510;2024-01-27T14:19:13;2.80;;;1.13;;
39776;SDS011;25453;48.162;14.510;2024-01-27T14:21:41;3.30;;;1.10;;
39776;SDS011;25453;48.162;14.510;2024-01-27T14:24:08;6.70;;;1.23;;
39776;SDS011;25453;48.162;14.510;2024-01-27T14:26:36;4.13;;;0.90;;
39776;SDS011;25453;48.162;14.510;2024-01-27T14:29:04;6.43;;;1.63;;
39776;SDS011;25453;48.162;14.510;2024-01-27T14:31:31;4.38;;;1.15;;
39776;SDS011;25453;48.162;14.510;2024-01-27T14:33:59;5.47;;;1.10;;
39776;SDS011;25453;48.162;14.510;2024-01-27T14:36:26;5.00;;;1.33;;
39776;SDS011;25453;48.162;14.510;2024-01-27T14:38:54;9.52;;;1.15;;